Time,TemperatureF,DewpointF,PressureIn,WindDirection,WindDirectionDegrees,WindSpeedMPH,WindSpeedGustMPH,Humidity,HourlyPrecipIn,Conditions,Clouds,dailyrainin,SoftwareType,DateUTC
2013-03-17 00:02:00,40.0,35.0,26.65,SW,225,0.0,5.0,81,0.00,,,0.00,Rainwise IP-100,2013-03-17 06:02:00,
2013-03-17 00:07:00,40.0,36.0,26.65,SW,225,1.0,4.0,83,0.00,,,0.00,Rainwise IP-100,2013-03-17 06:07:00,
2013-03-17 00:12:00,40.0,36.0,26.65,WNW,292,2.0,5.0,82,0.00,,,0.00,Rainwise IP-100,2013-03-17 06:12:00,
2013-03-17 00:17:00,39.0,35.0,26.65,West,270,2.0,5.0,83,0.00,,,0.00,Rainwise IP-100,2013-03-17 06:17:00,
2013-03-17 00:22:00,39.0,35.0,26.65,West,270,3.0,6.0,83,0.00,,,0.00,Rainwise IP-100,2013-03-17 06:22:00,
2013-03-17 00:27:00,39.0,35.0,26.65,WNW,292,1.0,5.0,84,0.00,,,0.00,Rainwise IP-100,2013-03-17 06:27:00,
2013-03-17 00:32:00,39.0,35.0,26.65,WSW,247,2.0,6.0,85,0.00,,,0.00,Rainwise IP-100,2013-03-17 06:32:00,
2013-03-17 00:37:00,39.0,36.0,26.66,WNW,292,0.0,6.0,86,0.00,,,0.00,Rainwise IP-100,2013-03-17 06:37:00,
2013-03-17 00:42:00,39.0,35.0,26.66,WNW,292,2.0,5.0,85,0.00,,,0.00,Rainwise IP-100,2013-03-17 06:42:00,
2013-03-17 00:47:00,39.0,35.0,26.65,West,270,3.0,5.0,85,0.00,,,0.00,Rainwise IP-100,2013-03-17 06:47:00,
2013-03-17 00:52:00,39.0,35.0,26.65,WSW,247,1.0,6.0,85,0.00,,,0.00,Rainwise IP-100,2013-03-17 06:52:00,
2013-03-17 00:57:00,39.0,35.0,26.65,WSW,247,0.0,4.0,85,0.00,,,0.00,Rainwise IP-100,2013-03-17 06:57:00,
2013-03-17 01:02:00,38.0,35.0,26.65,SW,225,0.0,4.0,85,0.00,,,0.00,Rainwise IP-100,2013-03-17 07:02:00,
2013-03-17 01:07:00,38.0,35.0,26.65,SW,225,2.0,5.0,85,0.00,,,0.00,Rainwise IP-100,2013-03-17 07:07:00,
2013-03-17 01:12:00,38.0,33.0,26.65,WSW,247,0.0,4.0,82,0.00,,,0.00,Rainwise IP-100,2013-03-17 07:12:00,
2013-03-17 01:17:00,38.0,32.0,26.64,SSW,202,2.0,4.0,80,0.00,,,0.00,Rainwise IP-100,2013-03-17 07:17:00,
2013-03-17 01:22:00,39.0,32.0,26.64,SSE,157,1.0,9.0,73,0.00,,,0.00,Rainwise IP-100,2013-03-17 07:22:00,
2013-03-17 01:27:00,39.0,29.0,26.64,SW,225,1.0,7.0,68,0.00,,,0.00,Rainwise IP-100,2013-03-17 07:27:00,
2013-03-17 01:32:00,39.0,29.0,26.64,West,270,4.0,9.0,67,0.00,,,0.00,Rainwise IP-100,2013-03-17 07:32:00,
2013-03-17 01:37:00,40.0,32.0,26.63,SSW,202,0.0,7.0,71,0.00,,,0.00,Rainwise IP-100,2013-03-17 07:37:00,
2013-03-17 01:42:00,39.0,32.0,26.63,South,180,4.0,10.0,77,0.00,,,0.00,Rainwise IP-100,2013-03-17 07:42:00,
2013-03-17 01:47:00,39.0,33.0,26.62,SSW,202,2.0,6.0,78,0.00,,,0.00,Rainwise IP-100,2013-03-17 07:47:00,
2013-03-17 01:52:00,39.0,33.0,26.62,SSW,202,1.0,7.0,81,0.00,,,0.00,Rainwise IP-100,2013-03-17 07:52:00,
2013-03-17 01:57:00,39.0,35.0,26.62,South,180,1.0,8.0,83,0.00,,,0.00,Rainwise IP-100,2013-03-17 07:57:00,
2013-03-17 02:02:00,38.0,33.0,26.62,South,180,3.0,5.0,84,0.00,,,0.00,Rainwise IP-100,2013-03-17 08:02:00,
2013-03-17 02:07:00,38.0,35.0,26.62,SSW,202,5.0,9.0,86,0.00,,,0.00,Rainwise IP-100,2013-03-17 08:07:00,
2013-03-17 02:12:00,38.0,35.0,26.62,WSW,247,5.0,9.0,86,0.00,,,0.00,Rainwise IP-100,2013-03-17 08:12:00,
2013-03-17 02:17:00,38.0,35.0,26.61,South,180,3.0,6.0,86,0.00,,,0.00,Rainwise IP-100,2013-03-17 08:17:00,
2013-03-17 02:22:00,38.0,35.0,26.61,SW,225,0.0,6.0,87,0.00,,,0.00,Rainwise IP-100,2013-03-17 08:22:00,
2013-03-17 02:27:00,37.0,35.0,26.61,SW,225,1.0,6.0,89,0.00,,,0.00,Rainwise IP-100,2013-03-17 08:27:00,
2013-03-17 02:32:00,37.0,33.0,26.61,SSW,202,5.0,11.0,88,0.00,,,0.00,Rainwise IP-100,2013-03-17 08:32:00,
2013-03-17 02:37:00,38.0,35.0,26.62,SSW,202,7.0,9.0,86,0.00,,,0.00,Rainwise IP-100,2013-03-17 08:37:00,
2013-03-17 02:42:00,38.0,33.0,26.62,SSE,157,7.0,9.0,84,0.00,,,0.00,Rainwise IP-100,2013-03-17 08:42:00,
2013-03-17 02:47:00,38.0,33.0,26.61,SSW,202,5.0,11.0,83,0.00,,,0.00,Rainwise IP-100,2013-03-17 08:47:00,
2013-03-17 02:52:00,39.0,35.0,26.61,South,180,7.0,13.0,83,0.00,,,0.00,Rainwise IP-100,2013-03-17 08:52:00,
2013-03-17 02:57:00,38.0,33.0,26.61,SSE,157,7.0,12.0,84,0.00,,,0.00,Rainwise IP-100,2013-03-17 08:57:00,
2013-03-17 03:02:00,38.0,35.0,26.61,SSW,202,6.0,9.0,85,0.00,,,0.00,Rainwise IP-100,2013-03-17 09:02:00,
2013-03-17 03:07:00,38.0,33.0,26.61,West,270,2.0,14.0,84,0.00,,,0.00,Rainwise IP-100,2013-03-17 09:07:00,
2013-03-17 03:12:00,37.0,33.0,26.61,SSE,157,8.0,16.0,87,0.00,,,0.00,Rainwise IP-100,2013-03-17 09:12:00,
2013-03-17 03:17:00,36.0,33.0,26.66,WNW,292,3.0,16.0,90,0.06,,,0.01,Rainwise IP-100,2013-03-17 09:17:00,
2013-03-17 03:22:00,34.0,33.0,26.66,SSW,202,8.0,15.0,94,0.06,,,0.01,Rainwise IP-100,2013-03-17 09:22:00,
2013-03-17 03:27:00,34.0,33.0,26.68,SW,225,9.0,9.0,96,0.00,,,0.01,Rainwise IP-100,2013-03-17 09:27:00,
2013-03-17 03:32:00,33.0,32.0,26.68,West,270,8.0,19.0,96,0.00,,,0.01,Rainwise IP-100,2013-03-17 09:32:00,
2013-03-17 03:37:00,33.0,32.0,26.69,SSW,202,6.0,10.0,97,0.00,,,0.01,Rainwise IP-100,2013-03-17 09:37:00,
2013-03-17 03:42:00,33.0,32.0,26.69,WSW,247,6.0,11.0,97,0.00,,,0.01,Rainwise IP-100,2013-03-17 09:42:00,
2013-03-17 03:47:00,33.0,31.0,26.71,WSW,247,6.0,19.0,92,0.00,,,0.01,Rainwise IP-100,2013-03-17 09:47:00,
2013-03-17 03:52:00,33.0,31.0,26.71,West,270,6.0,19.0,89,0.00,,,0.01,Rainwise IP-100,2013-03-17 09:52:00,
2013-03-17 03:57:00,33.0,31.0,26.71,WNW,292,4.0,10.0,89,0.00,,,0.01,Rainwise IP-100,2013-03-17 09:57:00,
2013-03-17 04:02:00,33.0,31.0,26.71,WSW,247,6.0,9.0,90,0.00,,,0.01,Rainwise IP-100,2013-03-17 10:02:00,
2013-03-17 04:07:00,32.0,29.0,26.71,SSE,157,2.0,7.0,91,0.00,,,0.01,Rainwise IP-100,2013-03-17 10:07:00,
2013-03-17 04:12:00,33.0,29.0,26.71,WSW,247,2.0,13.0,84,0.00,,,0.01,Rainwise IP-100,2013-03-17 10:12:00,
2013-03-17 04:17:00,33.0,28.0,26.73,SSE,157,0.0,8.0,77,0.00,,,0.01,Rainwise IP-100,2013-03-17 10:17:00,
2013-03-17 04:22:00,33.0,28.0,26.73,East,90,6.0,6.0,77,0.00,,,0.01,Rainwise IP-100,2013-03-17 10:22:00,
2013-03-17 04:27:00,33.0,28.0,26.72,West,270,4.0,12.0,77,0.00,,,0.01,Rainwise IP-100,2013-03-17 10:27:00,
2013-03-17 04:32:00,34.0,24.0,26.72,WNW,292,1.0,10.0,64,0.00,,,0.01,Rainwise IP-100,2013-03-17 10:32:00,
2013-03-17 04:37:00,34.0,24.0,26.72,WNW,292,0.0,7.0,63,0.00,,,0.01,Rainwise IP-100,2013-03-17 10:37:00,
2013-03-17 04:43:00,33.0,24.0,26.72,WNW,292,0.0,5.0,67,0.00,,,0.01,Rainwise IP-100,2013-03-17 10:43:00,
2013-03-17 04:48:00,34.0,23.0,26.73,WNW,292,12.0,14.0,62,0.00,,,0.01,Rainwise IP-100,2013-03-17 10:48:00,
2013-03-17 04:53:00,34.0,23.0,26.73,WNW,292,8.0,17.0,61,0.00,,,0.01,Rainwise IP-100,2013-03-17 10:53:00,
2013-03-17 04:58:00,34.0,23.0,26.72,WNW,292,6.0,16.0,61,0.00,,,0.01,Rainwise IP-100,2013-03-17 10:58:00,
2013-03-17 05:03:00,34.0,24.0,26.72,WNW,292,5.0,9.0,65,0.00,,,0.01,Rainwise IP-100,2013-03-17 11:03:00,
2013-03-17 05:08:00,33.0,23.0,26.71,WNW,292,1.0,12.0,65,0.00,,,0.01,Rainwise IP-100,2013-03-17 11:08:00,
2013-03-17 05:13:00,33.0,24.0,26.71,WNW,292,8.0,12.0,67,0.00,,,0.01,Rainwise IP-100,2013-03-17 11:13:00,
2013-03-17 05:18:00,33.0,24.0,26.72,WNW,292,0.0,10.0,70,0.00,,,0.01,Rainwise IP-100,2013-03-17 11:18:00,
2013-03-17 05:23:00,33.0,24.0,26.72,WNW,292,7.0,10.0,68,0.00,,,0.01,Rainwise IP-100,2013-03-17 11:23:00,
2013-03-17 05:28:00,32.0,26.0,26.73,WNW,292,2.0,8.0,76,0.00,,,0.01,Rainwise IP-100,2013-03-17 11:28:00,
2013-03-17 05:33:00,32.0,26.0,26.73,WNW,292,3.0,8.0,77,0.00,,,0.01,Rainwise IP-100,2013-03-17 11:33:00,
2013-03-17 05:38:00,31.0,26.0,26.75,WNW,292,5.0,10.0,83,0.00,,,0.01,Rainwise IP-100,2013-03-17 11:38:00,
2013-03-17 05:43:00,31.0,28.0,26.75,WNW,292,6.0,10.0,87,0.00,,,0.01,Rainwise IP-100,2013-03-17 11:43:00,
2013-03-17 05:48:00,30.0,28.0,26.76,WNW,292,4.0,7.0,88,0.00,,,0.01,Rainwise IP-100,2013-03-17 11:48:00,
2013-03-17 05:53:00,30.0,28.0,26.76,WNW,292,1.0,6.0,90,0.00,,,0.01,Rainwise IP-100,2013-03-17 11:53:00,
2013-03-17 05:58:00,29.0,28.0,26.77,WNW,292,1.0,6.0,92,0.00,,,0.01,Rainwise IP-100,2013-03-17 11:58:00,
2013-03-17 06:03:00,29.0,28.0,26.77,WNW,292,0.0,3.0,91,0.00,,,0.01,Rainwise IP-100,2013-03-17 12:03:00,
2013-03-17 06:08:00,29.0,26.0,26.78,WNW,292,0.0,1.0,90,0.00,,,0.01,Rainwise IP-100,2013-03-17 12:08:00,
2013-03-17 06:13:00,29.0,28.0,26.78,WNW,292,0.0,0.0,92,0.00,,,0.01,Rainwise IP-100,2013-03-17 12:13:00,
2013-03-17 06:18:00,29.0,28.0,26.78,WNW,292,1.0,3.0,93,0.00,,,0.01,Rainwise IP-100,2013-03-17 12:18:00,
2013-03-17 06:23:00,29.0,28.0,26.78,WNW,292,0.0,2.0,93,0.00,,,0.01,Rainwise IP-100,2013-03-17 12:23:00,
2013-03-17 06:28:00,29.0,28.0,26.79,WNW,292,0.0,0.0,93,0.00,,,0.01,Rainwise IP-100,2013-03-17 12:28:00,
2013-03-17 06:33:00,29.0,28.0,26.79,WNW,292,0.0,2.0,93,0.00,,,0.01,Rainwise IP-100,2013-03-17 12:33:00,
2013-03-17 06:38:00,29.0,28.0,26.79,WNW,292,2.0,5.0,93,0.00,,,0.01,Rainwise IP-100,2013-03-17 12:38:00,
2013-03-17 06:43:00,29.0,26.0,26.79,WNW,292,4.0,5.0,89,0.00,,,0.01,Rainwise IP-100,2013-03-17 12:43:00,
2013-03-17 06:48:00,30.0,24.0,26.77,WNW,292,2.0,7.0,78,0.00,,,0.01,Rainwise IP-100,2013-03-17 12:48:00,
2013-03-17 06:53:00,30.0,24.0,26.77,WNW,292,3.0,12.0,78,0.00,,,0.01,Rainwise IP-100,2013-03-17 12:53:00,
2013-03-17 06:58:00,31.0,23.0,26.77,WNW,292,6.0,12.0,73,0.00,,,0.01,Rainwise IP-100,2013-03-17 12:58:00,
2013-03-17 07:03:00,30.0,23.0,26.77,WNW,292,2.0,10.0,73,0.00,,,0.01,Rainwise IP-100,2013-03-17 13:03:00,
2013-03-17 07:08:00,30.0,24.0,26.76,WNW,292,7.0,7.0,74,0.00,,,0.01,Rainwise IP-100,2013-03-17 13:08:00,
2013-03-17 07:13:00,30.0,23.0,26.76,WNW,292,2.0,11.0,73,0.00,,,0.01,Rainwise IP-100,2013-03-17 13:13:00,
2013-03-17 07:18:00,30.0,23.0,26.76,WNW,292,3.0,9.0,73,0.00,,,0.01,Rainwise IP-100,2013-03-17 13:18:00,
2013-03-17 07:23:00,30.0,24.0,26.76,WNW,292,8.0,9.0,75,0.00,,,0.01,Rainwise IP-100,2013-03-17 13:23:00,
2013-03-17 07:28:00,29.0,23.0,26.77,WNW,292,1.0,9.0,75,0.00,,,0.01,Rainwise IP-100,2013-03-17 13:28:00,
2013-03-17 07:33:00,29.0,23.0,26.77,WNW,292,2.0,6.0,76,0.00,,,0.01,Rainwise IP-100,2013-03-17 13:33:00,
2013-03-17 07:38:00,29.0,23.0,26.78,WNW,292,1.0,3.0,77,0.00,,,0.01,Rainwise IP-100,2013-03-17 13:38:00,
2013-03-17 07:43:00,29.0,23.0,26.78,WNW,292,0.0,2.0,78,0.00,,,0.01,Rainwise IP-100,2013-03-17 13:43:00,
2013-03-17 07:48:00,28.0,23.0,26.78,WNW,292,1.0,2.0,80,0.00,,,0.01,Rainwise IP-100,2013-03-17 13:48:00,
2013-03-17 07:53:00,29.0,24.0,26.78,WNW,292,2.0,2.0,80,0.00,,,0.01,Rainwise IP-100,2013-03-17 13:53:00,
2013-03-17 07:58:00,29.0,24.0,26.79,WNW,292,3.0,3.0,79,0.00,,,0.01,Rainwise IP-100,2013-03-17 13:58:00,
2013-03-17 08:03:00,29.0,24.0,26.79,WNW,292,0.0,3.0,80,0.00,,,0.01,Rainwise IP-100,2013-03-17 14:03:00,
2013-03-17 08:08:00,29.0,23.0,26.79,WNW,292,0.0,2.0,78,0.00,,,0.01,Rainwise IP-100,2013-03-17 14:08:00,
2013-03-17 08:13:00,29.0,24.0,26.79,WNW,292,1.0,1.0,80,0.00,,,0.01,Rainwise IP-100,2013-03-17 14:13:00,
2013-03-17 08:18:00,29.0,23.0,26.79,WNW,292,3.0,3.0,75,0.00,,,0.01,Rainwise IP-100,2013-03-17 14:18:00,
2013-03-17 08:23:00,30.0,23.0,26.79,WNW,292,3.0,5.0,68,0.00,,,0.01,Rainwise IP-100,2013-03-17 14:23:00,
2013-03-17 08:28:00,30.0,23.0,26.77,WNW,292,0.0,6.0,73,0.00,,,0.01,Rainwise IP-100,2013-03-17 14:28:00,
2013-03-17 08:33:00,31.0,23.0,26.77,South,180,1.0,8.0,70,0.00,,,0.01,Rainwise IP-100,2013-03-17 14:33:00,
2013-03-17 08:38:00,31.0,23.0,26.77,South,180,6.0,8.0,69,0.00,,,0.01,Rainwise IP-100,2013-03-17 14:38:00,
2013-03-17 08:43:00,31.0,23.0,26.77,South,180,1.0,8.0,69,0.00,,,0.01,Rainwise IP-100,2013-03-17 14:43:00,
2013-03-17 08:48:00,31.0,23.0,26.78,South,180,0.0,5.0,70,0.00,,,0.01,Rainwise IP-100,2013-03-17 14:48:00,
2013-03-17 08:53:00,31.0,23.0,26.78,South,180,9.0,10.0,72,0.00,,,0.01,Rainwise IP-100,2013-03-17 14:53:00,
2013-03-17 08:58:00,31.0,24.0,26.79,South,180,3.0,11.0,76,0.00,,,0.01,Rainwise IP-100,2013-03-17 14:58:00,
2013-03-17 09:03:00,31.0,24.0,26.79,South,180,6.0,13.0,77,0.00,,,0.01,Rainwise IP-100,2013-03-17 15:03:00,
2013-03-17 09:08:00,32.0,26.0,26.79,SSE,157,6.0,10.0,77,0.00,,,0.01,Rainwise IP-100,2013-03-17 15:08:00,
2013-03-17 09:13:00,32.0,26.0,26.79,SSE,157,6.0,10.0,76,0.00,,,0.01,Rainwise IP-100,2013-03-17 15:13:00,
2013-03-17 09:18:00,32.0,26.0,26.79,South,180,7.0,10.0,75,0.00,,,0.01,Rainwise IP-100,2013-03-17 15:18:00,
2013-03-17 09:23:00,32.0,24.0,26.79,SSW,202,6.0,9.0,73,0.00,,,0.01,Rainwise IP-100,2013-03-17 15:23:00,
2013-03-17 09:28:00,32.0,24.0,26.79,South,180,3.0,8.0,72,0.00,,,0.01,Rainwise IP-100,2013-03-17 15:28:00,
2013-03-17 09:33:00,32.0,24.0,26.79,SSE,157,5.0,6.0,70,0.00,,,0.01,Rainwise IP-100,2013-03-17 15:33:00,
2013-03-17 09:38:00,32.0,23.0,26.79,South,180,6.0,7.0,67,0.00,,,0.01,Rainwise IP-100,2013-03-17 15:38:00,
2013-03-17 09:43:00,32.0,23.0,26.79,SW,225,3.0,6.0,64,0.00,,,0.01,Rainwise IP-100,2013-03-17 15:43:00,
2013-03-17 09:48:00,33.0,24.0,26.79,SW,225,1.0,8.0,66,0.00,,,0.01,Rainwise IP-100,2013-03-17 15:48:00,
2013-03-17 09:53:00,33.0,23.0,26.79,WSW,247,2.0,9.0,62,0.00,,,0.01,Rainwise IP-100,2013-03-17 15:53:00,
2013-03-17 09:58:00,33.0,21.0,26.78,South,180,6.0,10.0,60,0.00,,,0.01,Rainwise IP-100,2013-03-17 15:58:00,
2013-03-17 10:03:00,33.0,23.0,26.78,SSE,157,8.0,9.0,62,0.00,,,0.01,Rainwise IP-100,2013-03-17 16:03:00,
2013-03-17 10:08:00,34.0,24.0,26.78,South,180,6.0,9.0,63,0.00,,,0.01,Rainwise IP-100,2013-03-17 16:08:00,
2013-03-17 10:13:00,34.0,23.0,26.78,SSE,157,11.0,12.0,61,0.00,,,0.01,Rainwise IP-100,2013-03-17 16:13:00,
2013-03-17 10:18:00,35.0,23.0,26.77,SE,135,3.0,12.0,62,0.00,,,0.01,Rainwise IP-100,2013-03-17 16:18:00,
2013-03-17 10:23:00,35.0,23.0,26.77,South,180,7.0,10.0,60,0.00,,,0.01,Rainwise IP-100,2013-03-17 16:23:00,
2013-03-17 10:28:00,35.0,24.0,26.77,SSW,202,3.0,12.0,64,0.00,,,0.01,Rainwise IP-100,2013-03-17 16:28:00,
2013-03-17 10:33:00,35.0,23.0,26.77,SSW,202,5.0,9.0,60,0.00,,,0.01,Rainwise IP-100,2013-03-17 16:33:00,
2013-03-17 10:38:00,35.0,23.0,26.77,SW,225,2.0,16.0,61,0.00,,,0.01,Rainwise IP-100,2013-03-17 16:38:00,
2013-03-17 10:43:00,35.0,23.0,26.77,SSW,202,1.0,9.0,58,0.00,,,0.01,Rainwise IP-100,2013-03-17 16:43:00,
2013-03-17 10:48:00,36.0,23.0,26.77,WSW,247,8.0,10.0,56,0.00,,,0.01,Rainwise IP-100,2013-03-17 16:48:00,
2013-03-17 10:53:00,36.0,24.0,26.77,West,270,3.0,9.0,60,0.00,,,0.01,Rainwise IP-100,2013-03-17 16:53:00,
2013-03-17 10:58:00,36.0,23.0,26.77,WNW,292,4.0,12.0,56,0.00,,,0.01,Rainwise IP-100,2013-03-17 16:58:00,
2013-03-17 11:03:00,36.0,21.0,26.77,West,270,6.0,13.0,52,0.00,,,0.01,Rainwise IP-100,2013-03-17 17:03:00,
2013-03-17 11:08:00,36.0,23.0,26.77,East,90,4.0,19.0,56,0.00,,,0.01,Rainwise IP-100,2013-03-17 17:08:00,
2013-03-17 11:13:00,36.0,23.0,26.77,West,270,7.0,10.0,56,0.06,,,0.02,Rainwise IP-100,2013-03-17 17:13:00,
2013-03-17 11:18:00,36.0,23.0,26.78,WSW,247,6.0,12.0,59,0.06,,,0.02,Rainwise IP-100,2013-03-17 17:18:00,
2013-03-17 11:23:00,35.0,24.0,26.78,West,270,0.0,9.0,64,0.00,,,0.02,Rainwise IP-100,2013-03-17 17:23:00,
2013-03-17 11:28:00,34.0,23.0,26.79,SSW,202,6.0,12.0,62,0.00,,,0.02,Rainwise IP-100,2013-03-17 17:28:00,
2013-03-17 11:33:00,35.0,24.0,26.79,WSW,247,2.0,13.0,64,0.00,,,0.02,Rainwise IP-100,2013-03-17 17:33:00,
2013-03-17 11:38:00,35.0,23.0,26.79,SW,225,6.0,7.0,61,0.00,,,0.02,Rainwise IP-100,2013-03-17 17:38:00,
2013-03-17 11:43:00,35.0,23.0,26.79,SSW,202,4.0,13.0,62,0.00,,,0.02,Rainwise IP-100,2013-03-17 17:43:00,
2013-03-17 11:48:00,35.0,23.0,26.79,SSW,202,3.0,11.0,60,0.00,,,0.02,Rainwise IP-100,2013-03-17 17:48:00,
2013-03-17 11:54:00,36.0,23.0,26.79,WSW,247,3.0,10.0,56,0.00,,,0.02,Rainwise IP-100,2013-03-17 17:54:00,
2013-03-17 11:59:00,36.0,21.0,26.79,SW,225,8.0,12.0,51,0.00,,,0.02,Rainwise IP-100,2013-03-17 17:59:00,
2013-03-17 12:04:00,36.0,21.0,26.79,WSW,247,6.0,12.0,50,0.00,,,0.02,Rainwise IP-100,2013-03-17 18:04:00,
2013-03-17 12:09:00,36.0,18.0,26.79,West,270,5.0,10.0,49,0.00,,,0.02,Rainwise IP-100,2013-03-17 18:09:00,
2013-03-17 12:14:00,36.0,21.0,26.79,WSW,247,3.0,15.0,51,0.00,,,0.02,Rainwise IP-100,2013-03-17 18:14:00,
2013-03-17 12:19:00,36.0,18.0,26.79,West,270,6.0,16.0,49,0.00,,,0.02,Rainwise IP-100,2013-03-17 18:19:00,
2013-03-17 12:24:00,35.0,18.0,26.79,SW,225,3.0,16.0,49,0.00,,,0.02,Rainwise IP-100,2013-03-17 18:24:00,
2013-03-17 12:29:00,36.0,18.0,26.80,WNW,292,7.0,15.0,48,0.00,,,0.02,Rainwise IP-100,2013-03-17 18:29:00,
2013-03-17 12:34:00,36.0,18.0,26.80,SSW,202,4.0,10.0,49,0.00,,,0.02,Rainwise IP-100,2013-03-17 18:34:00,
2013-03-17 12:39:00,36.0,18.0,26.80,WSW,247,7.0,12.0,49,0.00,,,0.02,Rainwise IP-100,2013-03-17 18:39:00,
2013-03-17 12:44:00,36.0,18.0,26.80,WNW,292,6.0,14.0,49,0.00,,,0.02,Rainwise IP-100,2013-03-17 18:44:00,
2013-03-17 12:49:00,36.0,18.0,26.80,SW,225,6.0,23.0,49,0.00,,,0.02,Rainwise IP-100,2013-03-17 18:49:00,
2013-03-17 12:54:00,36.0,21.0,26.80,West,270,4.0,15.0,51,0.00,,,0.02,Rainwise IP-100,2013-03-17 18:54:00,
2013-03-17 12:59:00,36.0,18.0,26.80,WNW,292,6.0,16.0,49,0.00,,,0.02,Rainwise IP-100,2013-03-17 18:59:00,
2013-03-17 13:04:00,36.0,18.0,26.80,WSW,247,9.0,19.0,48,0.00,,,0.02,Rainwise IP-100,2013-03-17 19:04:00,
2013-03-17 13:09:00,37.0,21.0,26.81,SSW,202,4.0,13.0,50,0.00,,,0.02,Rainwise IP-100,2013-03-17 19:09:00,
2013-03-17 13:14:00,37.0,21.0,26.81,WNW,292,4.0,16.0,49,0.00,,,0.02,Rainwise IP-100,2013-03-17 19:14:00,
2013-03-17 13:19:00,37.0,21.0,26.80,SW,225,3.0,13.0,48,0.00,,,0.02,Rainwise IP-100,2013-03-17 19:19:00,
2013-03-17 13:24:00,37.0,21.0,26.80,West,270,6.0,14.0,49,0.00,,,0.02,Rainwise IP-100,2013-03-17 19:24:00,
2013-03-17 13:29:00,37.0,18.0,26.80,SSW,202,7.0,14.0,47,0.00,,,0.02,Rainwise IP-100,2013-03-17 19:29:00,
2013-03-17 13:34:00,37.0,18.0,26.80,SSW,202,9.0,13.0,47,0.00,,,0.02,Rainwise IP-100,2013-03-17 19:34:00,
2013-03-17 13:39:00,37.0,18.0,26.81,SSW,202,3.0,15.0,47,0.00,,,0.02,Rainwise IP-100,2013-03-17 19:39:00,
2013-03-17 13:44:00,37.0,18.0,26.81,West,270,2.0,15.0,47,0.00,,,0.02,Rainwise IP-100,2013-03-17 19:44:00,
2013-03-17 13:49:00,37.0,18.0,26.80,SSW,202,4.0,16.0,46,0.00,,,0.02,Rainwise IP-100,2013-03-17 19:49:00,
2013-03-17 13:54:00,37.0,21.0,26.80,WSW,247,8.0,10.0,49,0.00,,,0.02,Rainwise IP-100,2013-03-17 19:54:00,
2013-03-17 13:59:00,38.0,21.0,26.80,WSW,247,1.0,12.0,49,0.00,,,0.02,Rainwise IP-100,2013-03-17 19:59:00,
2013-03-17 14:04:00,37.0,21.0,26.80,West,270,10.0,13.0,48,0.00,,,0.02,Rainwise IP-100,2013-03-17 20:04:00,
2013-03-17 14:09:00,37.0,21.0,26.81,West,270,12.0,16.0,50,0.00,,,0.02,Rainwise IP-100,2013-03-17 20:09:00,
2013-03-17 14:14:00,37.0,21.0,26.81,West,270,3.0,15.0,50,0.00,,,0.02,Rainwise IP-100,2013-03-17 20:14:00,
2013-03-17 14:19:00,37.0,21.0,26.82,SW,225,3.0,14.0,51,0.00,,,0.02,Rainwise IP-100,2013-03-17 20:19:00,
2013-03-17 14:24:00,37.0,21.0,26.82,SSW,202,7.0,15.0,49,0.00,,,0.02,Rainwise IP-100,2013-03-17 20:24:00,
2013-03-17 14:29:00,37.0,21.0,26.82,NW,315,7.0,14.0,51,0.00,,,0.02,Rainwise IP-100,2013-03-17 20:29:00,
2013-03-17 14:34:00,38.0,21.0,26.82,WSW,247,10.0,12.0,49,0.00,,,0.02,Rainwise IP-100,2013-03-17 20:34:00,
2013-03-17 14:39:00,38.0,21.0,26.81,WNW,292,2.0,13.0,48,0.00,,,0.02,Rainwise IP-100,2013-03-17 20:39:00,
2013-03-17 14:44:00,38.0,21.0,26.81,SSW,202,6.0,12.0,47,0.00,,,0.02,Rainwise IP-100,2013-03-17 20:44:00,
2013-03-17 14:49:00,38.0,21.0,26.81,WSW,247,6.0,8.0,48,0.00,,,0.02,Rainwise IP-100,2013-03-17 20:49:00,
2013-03-17 14:54:00,38.0,21.0,26.81,SSW,202,6.0,13.0,48,0.00,,,0.02,Rainwise IP-100,2013-03-17 20:54:00,
2013-03-17 14:59:00,38.0,21.0,26.81,WNW,292,2.0,12.0,49,0.00,,,0.02,Rainwise IP-100,2013-03-17 20:59:00,
2013-03-17 15:04:00,38.0,21.0,26.81,West,270,4.0,12.0,48,0.00,,,0.02,Rainwise IP-100,2013-03-17 21:04:00,
2013-03-17 15:09:00,39.0,23.0,26.81,West,270,2.0,12.0,49,0.00,,,0.02,Rainwise IP-100,2013-03-17 21:09:00,
2013-03-17 15:14:00,39.0,21.0,26.81,South,180,7.0,9.0,46,0.00,,,0.02,Rainwise IP-100,2013-03-17 21:14:00,
2013-03-17 15:19:00,39.0,21.0,26.81,WSW,247,10.0,14.0,47,0.00,,,0.02,Rainwise IP-100,2013-03-17 21:19:00,
2013-03-17 15:24:00,39.0,21.0,26.81,WSW,247,2.0,15.0,47,0.00,,,0.02,Rainwise IP-100,2013-03-17 21:24:00,
2013-03-17 15:29:00,40.0,21.0,26.81,WSW,247,7.0,16.0,45,0.00,,,0.02,Rainwise IP-100,2013-03-17 21:29:00,
2013-03-17 15:34:00,40.0,23.0,26.81,WNW,292,5.0,16.0,46,0.00,,,0.02,Rainwise IP-100,2013-03-17 21:34:00,
2013-03-17 15:39:00,39.0,21.0,26.81,WSW,247,7.0,14.0,45,0.00,,,0.02,Rainwise IP-100,2013-03-17 21:39:00,
2013-03-17 15:44:00,40.0,21.0,26.81,WNW,292,9.0,15.0,44,0.00,,,0.02,Rainwise IP-100,2013-03-17 21:44:00,
2013-03-17 15:49:00,41.0,21.0,26.81,West,270,2.0,17.0,43,0.00,,,0.02,Rainwise IP-100,2013-03-17 21:49:00,
2013-03-17 15:54:00,41.0,21.0,26.81,WSW,247,4.0,12.0,43,0.00,,,0.02,Rainwise IP-100,2013-03-17 21:54:00,
2013-03-17 15:59:00,41.0,23.0,26.81,West,270,9.0,15.0,46,0.00,,,0.02,Rainwise IP-100,2013-03-17 21:59:00,
2013-03-17 16:04:00,40.0,23.0,26.81,WSW,247,9.0,17.0,46,0.00,,,0.02,Rainwise IP-100,2013-03-17 22:04:00,
2013-03-17 16:09:00,39.0,21.0,26.82,SW,225,4.0,16.0,47,0.00,,,0.02,Rainwise IP-100,2013-03-17 22:09:00,
2013-03-17 16:14:00,39.0,21.0,26.82,West,270,9.0,11.0,47,0.00,,,0.02,Rainwise IP-100,2013-03-17 22:14:00,
2013-03-17 16:19:00,39.0,21.0,26.83,West,270,3.0,12.0,47,0.00,,,0.02,Rainwise IP-100,2013-03-17 22:19:00,
2013-03-17 16:24:00,39.0,21.0,26.83,WSW,247,7.0,15.0,47,0.00,,,0.02,Rainwise IP-100,2013-03-17 22:24:00,
2013-03-17 16:29:00,39.0,23.0,26.83,WSW,247,6.0,12.0,48,0.00,,,0.02,Rainwise IP-100,2013-03-17 22:29:00,
2013-03-17 16:34:00,39.0,23.0,26.83,WSW,247,6.0,13.0,48,0.00,,,0.02,Rainwise IP-100,2013-03-17 22:34:00,
2013-03-17 16:39:00,40.0,23.0,26.83,South,180,3.0,10.0,48,0.00,,,0.02,Rainwise IP-100,2013-03-17 22:39:00,
2013-03-17 16:44:00,40.0,21.0,26.83,WSW,247,3.0,14.0,45,0.00,,,0.02,Rainwise IP-100,2013-03-17 22:44:00,
2013-03-17 16:49:00,42.0,23.0,26.82,West,270,8.0,10.0,44,0.00,,,0.02,Rainwise IP-100,2013-03-17 22:49:00,
2013-03-17 16:54:00,41.0,21.0,26.82,West,270,10.0,12.0,41,0.00,,,0.02,Rainwise IP-100,2013-03-17 22:54:00,
2013-03-17 16:59:00,42.0,21.0,26.81,WNW,292,7.0,17.0,41,0.00,,,0.02,Rainwise IP-100,2013-03-17 22:59:00,
2013-03-17 17:04:00,42.0,18.0,26.81,West,270,1.0,15.0,38,0.00,,,0.02,Rainwise IP-100,2013-03-17 23:04:00,
2013-03-17 17:09:00,42.0,21.0,26.81,WSW,247,2.0,18.0,39,0.00,,,0.02,Rainwise IP-100,2013-03-17 23:09:00,
2013-03-17 17:14:00,42.0,21.0,26.81,SSW,202,6.0,20.0,40,0.00,,,0.02,Rainwise IP-100,2013-03-17 23:14:00,
2013-03-17 17:19:00,42.0,18.0,26.81,NNW,337,9.0,13.0,37,0.00,,,0.02,Rainwise IP-100,2013-03-17 23:19:00,
2013-03-17 17:24:00,42.0,21.0,26.81,SSW,202,5.0,18.0,39,0.00,,,0.02,Rainwise IP-100,2013-03-17 23:24:00,
2013-03-17 17:29:00,43.0,21.0,26.82,SSE,157,10.0,16.0,39,0.00,,,0.02,Rainwise IP-100,2013-03-17 23:29:00,
2013-03-17 17:34:00,43.0,21.0,26.82,WSW,247,3.0,17.0,39,0.00,,,0.02,Rainwise IP-100,2013-03-17 23:34:00,
2013-03-17 17:39:00,42.0,18.0,26.83,WSW,247,15.0,15.0,37,0.00,,,0.02,Rainwise IP-100,2013-03-17 23:39:00,
2013-03-17 17:44:00,41.0,18.0,26.83,West,270,10.0,17.0,37,0.00,,,0.02,Rainwise IP-100,2013-03-17 23:44:00,
2013-03-17 17:49:00,41.0,18.0,26.83,West,270,10.0,19.0,38,0.00,,,0.02,Rainwise IP-100,2013-03-17 23:49:00,
2013-03-17 17:54:00,41.0,21.0,26.83,WSW,247,13.0,15.0,41,0.00,,,0.02,Rainwise IP-100,2013-03-17 23:54:00,
2013-03-17 17:59:00,41.0,21.0,26.85,SSW,202,9.0,18.0,43,0.00,,,0.02,Rainwise IP-100,2013-03-17 23:59:00,
2013-03-17 18:04:00,40.0,21.0,26.85,WSW,247,10.0,13.0,44,0.00,,,0.02,Rainwise IP-100,2013-03-18 00:04:00,
2013-03-17 18:10:00,40.0,21.0,26.85,SSW,202,3.0,12.0,44,0.00,,,0.02,Rainwise IP-100,2013-03-18 00:10:00,
2013-03-17 18:15:00,40.0,21.0,26.85,SW,225,9.0,19.0,43,0.00,,,0.02,Rainwise IP-100,2013-03-18 00:15:00,
2013-03-17 18:20:00,41.0,21.0,26.86,WSW,247,11.0,15.0,42,0.00,,,0.02,Rainwise IP-100,2013-03-18 00:20:00,
2013-03-17 18:25:00,40.0,21.0,26.86,WSW,247,8.0,15.0,42,0.00,,,0.02,Rainwise IP-100,2013-03-18 00:25:00,
2013-03-17 18:30:00,40.0,18.0,26.86,SSW,202,6.0,15.0,41,0.00,,,0.02,Rainwise IP-100,2013-03-18 00:30:00,
2013-03-17 18:35:00,39.0,18.0,26.86,South,180,10.0,16.0,42,0.00,,,0.02,Rainwise IP-100,2013-03-18 00:35:00,
2013-03-17 18:40:00,39.0,21.0,26.88,East,90,2.0,16.0,44,0.00,,,0.02,Rainwise IP-100,2013-03-18 00:40:00,
2013-03-17 18:45:00,38.0,21.0,26.88,WSW,247,6.0,12.0,46,0.00,,,0.02,Rainwise IP-100,2013-03-18 00:45:00,
2013-03-17 18:50:00,38.0,21.0,26.89,SSW,202,5.0,13.0,47,0.00,,,0.02,Rainwise IP-100,2013-03-18 00:50:00,
2013-03-17 18:55:00,37.0,21.0,26.89,SSW,202,2.0,12.0,49,0.00,,,0.02,Rainwise IP-100,2013-03-18 00:55:00,
2013-03-17 19:00:00,37.0,21.0,26.90,WSW,247,6.0,17.0,49,0.00,,,0.02,Rainwise IP-100,2013-03-18 01:00:00,
2013-03-17 19:05:00,37.0,21.0,26.90,SW,225,6.0,10.0,48,0.00,,,0.02,Rainwise IP-100,2013-03-18 01:05:00,
2013-03-17 19:10:00,37.0,18.0,26.90,WSW,247,6.0,15.0,47,0.00,,,0.02,Rainwise IP-100,2013-03-18 01:10:00,
2013-03-17 19:15:00,36.0,18.0,26.90,WNW,292,4.0,15.0,49,0.00,,,0.02,Rainwise IP-100,2013-03-18 01:15:00,
2013-03-17 19:20:00,36.0,24.0,26.91,SSW,202,4.0,17.0,60,0.00,,,0.02,Rainwise IP-100,2013-03-18 01:20:00,
2013-03-17 19:25:00,35.0,24.0,26.91,SSW,202,4.0,12.0,63,0.00,,,0.02,Rainwise IP-100,2013-03-18 01:25:00,
2013-03-17 19:30:00,34.0,24.0,26.92,SW,225,8.0,12.0,66,0.00,,,0.02,Rainwise IP-100,2013-03-18 01:30:00,
2013-03-17 19:35:00,34.0,24.0,26.92,WSW,247,3.0,10.0,67,0.00,,,0.02,Rainwise IP-100,2013-03-18 01:35:00,
2013-03-17 19:40:00,34.0,24.0,26.93,WSW,247,6.0,9.0,67,0.00,,,0.02,Rainwise IP-100,2013-03-18 01:40:00,
2013-03-17 19:45:00,34.0,24.0,26.93,South,180,5.0,10.0,65,0.00,,,0.02,Rainwise IP-100,2013-03-18 01:45:00,
2013-03-17 19:50:00,33.0,23.0,26.93,SSW,202,6.0,12.0,65,0.00,,,0.02,Rainwise IP-100,2013-03-18 01:50:00,
2013-03-17 19:55:00,33.0,24.0,26.93,WSW,247,4.0,12.0,66,0.00,,,0.02,Rainwise IP-100,2013-03-18 01:55:00,
2013-03-17 20:00:00,33.0,24.0,26.94,WSW,247,6.0,9.0,67,0.00,,,0.02,Rainwise IP-100,2013-03-18 02:00:00,
2013-03-17 20:05:00,33.0,23.0,26.94,WSW,247,2.0,10.0,65,0.00,,,0.02,Rainwise IP-100,2013-03-18 02:05:00,
2013-03-17 20:10:00,33.0,23.0,26.93,SW,225,3.0,7.0,64,0.00,,,0.02,Rainwise IP-100,2013-03-18 02:10:00,
2013-03-17 20:15:00,33.0,23.0,26.93,South,180,3.0,12.0,64,0.00,,,0.02,Rainwise IP-100,2013-03-18 02:15:00,
2013-03-17 20:20:00,33.0,23.0,26.93,SSW,202,7.0,9.0,64,0.00,,,0.02,Rainwise IP-100,2013-03-18 02:20:00,
2013-03-17 20:25:00,33.0,23.0,26.93,SW,225,3.0,12.0,65,0.00,,,0.02,Rainwise IP-100,2013-03-18 02:25:00,
2013-03-17 20:30:00,32.0,23.0,26.93,SSW,202,1.0,7.0,65,0.00,,,0.02,Rainwise IP-100,2013-03-18 02:30:00,
2013-03-17 20:35:00,32.0,23.0,26.93,South,180,6.0,7.0,65,0.00,,,0.02,Rainwise IP-100,2013-03-18 02:35:00,
2013-03-17 20:40:00,32.0,21.0,26.95,South,180,3.0,10.0,62,0.00,,,0.02,Rainwise IP-100,2013-03-18 02:40:00,
2013-03-17 20:45:00,32.0,21.0,26.95,SSE,157,2.0,10.0,62,0.00,,,0.02,Rainwise IP-100,2013-03-18 02:45:00,
2013-03-17 20:50:00,32.0,21.0,26.95,SSE,157,2.0,8.0,62,0.00,,,0.02,Rainwise IP-100,2013-03-18 02:50:00,
2013-03-17 20:55:00,32.0,21.0,26.95,SSW,202,4.0,8.0,61,0.00,,,0.02,Rainwise IP-100,2013-03-18 02:55:00,
2013-03-17 21:00:00,32.0,21.0,26.96,SSE,157,3.0,7.0,62,0.00,,,0.02,Rainwise IP-100,2013-03-18 03:00:00,
2013-03-17 21:05:00,32.0,21.0,26.96,SSE,157,2.0,12.0,63,0.00,,,0.02,Rainwise IP-100,2013-03-18 03:05:00,
2013-03-17 21:10:00,32.0,21.0,26.96,WSW,247,6.0,12.0,63,0.00,,,0.02,Rainwise IP-100,2013-03-18 03:10:00,
2013-03-17 21:15:00,32.0,21.0,26.96,SSW,202,3.0,10.0,62,0.00,,,0.02,Rainwise IP-100,2013-03-18 03:15:00,
2013-03-17 21:20:00,32.0,23.0,26.95,SSW,202,7.0,14.0,64,0.00,,,0.02,Rainwise IP-100,2013-03-18 03:20:00,
2013-03-17 21:25:00,32.0,24.0,26.95,WSW,247,6.0,12.0,70,0.00,,,0.02,Rainwise IP-100,2013-03-18 03:25:00,
2013-03-17 21:30:00,32.0,24.0,26.96,WSW,247,4.0,8.0,73,0.00,,,0.02,Rainwise IP-100,2013-03-18 03:30:00,
2013-03-17 21:35:00,31.0,24.0,26.96,WSW,247,3.0,7.0,75,0.00,,,0.02,Rainwise IP-100,2013-03-18 03:35:00,
2013-03-17 21:40:00,31.0,24.0,26.97,SW,225,6.0,7.0,75,0.00,,,0.02,Rainwise IP-100,2013-03-18 03:40:00,
2013-03-17 21:45:00,31.0,23.0,26.97,South,180,8.0,8.0,72,0.00,,,0.02,Rainwise IP-100,2013-03-18 03:45:00,
2013-03-17 21:50:00,31.0,23.0,26.96,SSW,202,1.0,12.0,70,0.00,,,0.02,Rainwise IP-100,2013-03-18 03:50:00,
2013-03-17 21:55:00,32.0,24.0,26.96,SSW,202,3.0,11.0,70,0.00,,,0.02,Rainwise IP-100,2013-03-18 03:55:00,
2013-03-17 22:00:00,31.0,23.0,26.96,WSW,247,5.0,8.0,70,0.00,,,0.02,Rainwise IP-100,2013-03-18 04:00:00,
2013-03-17 22:05:00,31.0,23.0,26.96,WSW,247,2.0,10.0,70,0.00,,,0.02,Rainwise IP-100,2013-03-18 04:05:00,
2013-03-17 22:10:00,31.0,23.0,26.97,WNW,292,1.0,9.0,70,0.00,,,0.02,Rainwise IP-100,2013-03-18 04:10:00,
2013-03-17 22:15:00,31.0,23.0,26.97,SSW,202,2.0,7.0,70,0.00,,,0.02,Rainwise IP-100,2013-03-18 04:15:00,
2013-03-17 22:20:00,32.0,24.0,26.96,SSW,202,3.0,8.0,70,0.00,,,0.02,Rainwise IP-100,2013-03-18 04:20:00,
2013-03-17 22:25:00,32.0,23.0,26.96,South,180,6.0,12.0,69,0.00,,,0.02,Rainwise IP-100,2013-03-18 04:25:00,
2013-03-17 22:30:00,32.0,23.0,26.97,South,180,3.0,12.0,69,0.00,,,0.02,Rainwise IP-100,2013-03-18 04:30:00,
2013-03-17 22:31:00,32.0,23.0,26.97,South,180,4.0,12.0,69,0.00,,,0.02,Rainwise IP-100,2013-03-18 04:31:00,
2013-03-17 22:36:00,32.0,23.0,26.96,South,180,12.0,12.0,67,0.00,,,0.02,Rainwise IP-100,2013-03-18 04:36:00,
2013-03-17 22:41:00,32.0,23.0,26.96,South,180,4.0,12.0,67,0.00,,,0.02,Rainwise IP-100,2013-03-18 04:41:00,
2013-03-17 22:46:00,32.0,23.0,26.97,South,180,5.0,14.0,67,0.00,,,0.02,Rainwise IP-100,2013-03-18 04:46:00,
2013-03-17 22:51:00,32.0,23.0,26.97,South,180,7.0,10.0,68,0.00,,,0.02,Rainwise IP-100,2013-03-18 04:51:00,
2013-03-17 22:56:00,32.0,23.0,26.97,SSE,157,6.0,9.0,67,0.00,,,0.02,Rainwise IP-100,2013-03-18 04:56:00,
2013-03-17 23:01:00,32.0,23.0,26.97,SSW,202,4.0,7.0,67,0.00,,,0.02,Rainwise IP-100,2013-03-18 05:01:00,
2013-03-17 23:06:00,32.0,23.0,26.97,SW,225,4.0,8.0,66,0.00,,,0.02,Rainwise IP-100,2013-03-18 05:06:00,
2013-03-17 23:11:00,32.0,23.0,26.97,South,180,7.0,11.0,65,0.00,,,0.02,Rainwise IP-100,2013-03-18 05:11:00,
2013-03-17 23:16:00,32.0,23.0,26.97,SW,225,1.0,10.0,65,0.00,,,0.02,Rainwise IP-100,2013-03-18 05:16:00,
2013-03-17 23:21:00,32.0,23.0,26.97,South,180,6.0,8.0,65,0.00,,,0.02,Rainwise IP-100,2013-03-18 05:21:00,
2013-03-17 23:26:00,32.0,23.0,26.97,SSE,157,4.0,7.0,65,0.00,,,0.02,Rainwise IP-100,2013-03-18 05:26:00,
2013-03-17 23:31:00,32.0,23.0,26.97,South,180,8.0,10.0,67,0.00,,,0.02,Rainwise IP-100,2013-03-18 05:31:00,
2013-03-17 23:36:00,32.0,23.0,26.97,SW,225,1.0,12.0,67,0.00,,,0.02,Rainwise IP-100,2013-03-18 05:36:00,
2013-03-17 23:41:00,31.0,21.0,26.97,SW,225,1.0,11.0,67,0.00,,,0.02,Rainwise IP-100,2013-03-18 05:41:00,
2013-03-17 23:46:00,31.0,21.0,26.97,SSW,202,2.0,9.0,67,0.00,,,0.02,Rainwise IP-100,2013-03-18 05:46:00,
2013-03-17 23:51:00,31.0,23.0,26.97,WSW,247,5.0,11.0,68,0.00,,,0.02,Rainwise IP-100,2013-03-18 05:51:00,
2013-03-17 23:56:00,31.0,23.0,26.97,SSE,157,1.0,10.0,69,0.00,,,0.02,Rainwise IP-100,2013-03-18 05:56:00,